Weather at Don Miguel Hidalgo Y Costilla International Airport

Public forecast

Using degrees Celsius for public forecast. Weather courtesy of forecast.io.

Current aviation weather report (METAR) for Don Miguel Hidalgo Y Costilla International Airport

Retrieved 2021/06/17 01:40 UTC (1 hour ago):

MMGL 170140Z 34004KT 10SM BKN040 OVC100 26/08 A3005 RMK 8/47/

Aviation forecast (TAF) for Don Miguel Hidalgo Y Costilla International Airport

Retrieved 2021-06-17 00:09 UTC (3 hours ago):

TAF TAF MMGL 162306Z 1700/1806 19005KT P6SM BKN030CB TN18/1713Z TX30/1722Z TEMPO 1700/1704 5SM RA VC TS FM170500 07006KT P6SM SCT030 FM171900 09010KT P6SM SKC BECMG 1721/1722 BKN030 TEMPO 1723/1803 5SM TSRA BKN030CB